Time;durP1;ratioP1;P1;durP2;ratioP2;P2;SDS_P1;SDS_P2;PMS_P1;PMS_P2;Temp;Humidity;BMP_temperature;BMP_pressure;BME280_temperature;BME280_humidity;BME280_pressure;Samples;Min_cycle;Max_cycle;Signal;HPM_P1;HPM_P2
2022/03/02 00:01:26;;;;;;;21.83;8.25;;;;;;;-2.05;48.14;100649.91;4920781;28;20043;-73
2022/03/02 00:03:51;;;;;;;21.75;7.88;;;;;;;-2.07;47.56;100654.28;4921011;28;20097;-77
2022/03/02 00:06:17;;;;;;;16.70;7.50;;;;;;;-2.09;47.36;100649.06;4920115;29;20047;-73
2022/03/02 00:08:41;;;;;;;22.80;9.77;;;;;;;-2.07;47.12;100643.81;4920106;29;20050;-74
2022/03/02 00:11:06;;;;;;;28.30;8.10;;;;;;;-2.09;46.69;100640.34;4919966;28;20092;-73
2022/03/02 00:13:31;;;;;;;18.67;7.32;;;;;;;-2.09;47.69;100642.94;4920925;29;20097;-73
2022/03/02 00:15:56;;;;;;;18.83;8.73;;;;;;;-2.09;47.21;100643.81;4921456;28;20057;-73
2022/03/02 00:18:22;;;;;;;16.92;8.13;;;;;;;-2.10;47.18;100631.63;4920713;29;20129;-79
2022/03/02 00:20:47;;;;;;;25.60;8.38;;;;;;;-2.10;47.65;100633.38;4921487;28;20039;-72
2022/03/02 00:23:12;;;;;;;26.75;8.05;;;;;;;-2.12;47.46;100636.00;4919694;29;20054;-72
2022/03/02 00:25:36;;;;;;;18.58;9.05;;;;;;;-2.13;47.50;100633.38;4919653;28;20059;-74
2022/03/02 00:28:02;;;;;;;26.75;10.07;;;;;;;-2.14;47.54;100629.91;4919962;28;20039;-76
2022/03/02 00:30:28;;;;;;;22.80;8.30;;;;;;;-2.15;47.64;100632.53;4918977;28;20047;-69
2022/03/02 00:32:53;;;;;;;19.35;8.80;;;;;;;-2.15;47.75;100633.41;4917052;29;20055;-70
2022/03/02 00:35:18;;;;;;;27.25;8.80;;;;;;;-2.15;48.03;100627.31;4917136;28;20110;-68
2022/03/02 00:37:42;;;;;;;21.20;9.20;;;;;;;-2.14;47.91;100631.66;4917093;29;20043;-69
2022/03/02 00:40:07;;;;;;;27.95;9.05;;;;;;;-2.14;48.33;100627.28;4917542;29;20035;-71
2022/03/02 00:42:32;;;;;;;22.08;8.63;;;;;;;-2.14;48.12;100627.28;4920558;28;20047;-69
2022/03/02 00:44:57;;;;;;;23.08;8.82;;;;;;;-2.12;47.41;100628.16;4920465;28;20109;-72
2022/03/02 00:47:23;;;;;;;21.73;7.95;;;;;;;-2.11;47.35;100624.66;4903121;29;20794;-69
2022/03/02 00:49:48;;;;;;;17.75;8.32;;;;;;;-2.10;47.50;100621.19;4918526;28;20074;-67
2022/03/02 00:52:14;;;;;;;18.20;8.90;;;;;;;-2.11;47.70;100614.22;4918532;28;20588;-68
2022/03/02 00:54:38;;;;;;;19.45;8.43;;;;;;;-2.11;47.96;100613.34;4916914;29;20035;-68
2022/03/02 00:57:03;;;;;;;19.25;8.90;;;;;;;-2.11;48.46;100622.06;4920732;28;20051;-70
2022/03/02 00:59:28;;;;;;;27.48;9.93;;;;;;;-2.10;49.57;100618.56;4926700;29;20035;-70
2022/03/02 01:01:53;;;;;;;31.08;9.98;;;;;;;-2.12;49.52;100612.47;4930357;29;20046;-64
2022/03/02 01:04:17;;;;;;;29.33;11.25;;;;;;;-2.13;49.64;100605.50;4931891;28;20398;-66
2022/03/02 01:06:42;;;;;;;21.00;9.05;;;;;;;-2.15;48.65;100607.28;4924740;28;20047;-65
2022/03/02 01:09:07;;;;;;;26.50;9.38;;;;;;;-2.19;49.55;100610.78;4916929;29;20043;-72
2022/03/02 01:11:32;;;;;;;22.67;10.05;;;;;;;-2.21;49.66;100602.09;4919382;29;20054;-73
2022/03/02 01:13:56;;;;;;;17.25;8.27;;;;;;;-2.21;48.55;100602.09;4919318;29;20043;-71
2022/03/02 01:16:21;;;;;;;19.58;7.18;;;;;;;-2.23;49.04;100598.59;4918882;29;20050;-71
2022/03/02 01:18:46;;;;;;;28.20;9.05;;;;;;;-2.24;48.46;100596.88;4920118;29;20399;-71
2022/03/02 01:21:11;;;;;;;18.48;7.68;;;;;;;-2.28;48.62;100603.88;4918597;29;20497;-73
2022/03/02 01:23:36;;;;;;;26.67;9.85;;;;;;;-2.31;49.45;100601.25;4918051;29;20133;-72
2022/03/02 01:26:02;;;;;;;28.50;8.85;;;;;;;-2.33;49.42;100602.13;4918905;29;20126;-72
2022/03/02 01:28:27;;;;;;;18.38;8.98;;;;;;;-2.37;49.95;100603.03;4920373;28;20414;-72
2022/03/02 01:30:52;;;;;;;23.95;9.07;;;;;;;-2.40;50.32;100598.69;4918103;29;20401;-74
2022/03/02 01:33:17;;;;;;;31.42;9.18;;;;;;;-2.43;50.67;100600.44;4916827;29;20497;-73
2022/03/02 01:35:42;;;;;;;22.33;8.35;;;;;;;-2.46;50.36;100590.88;4917985;28;20058;-73
2022/03/02 01:38:07;;;;;;;18.65;9.13;;;;;;;-2.48;49.80;100597.00;4916971;29;20035;-73
2022/03/02 01:40:31;;;;;;;18.90;9.85;;;;;;;-2.50;50.51;100590.91;4918033;28;20043;-72
2022/03/02 01:42:56;;;;;;;20.88;7.78;;;;;;;-2.51;50.11;100597.00;4916191;29;20043;-74
2022/03/02 01:45:21;;;;;;;17.45;7.95;;;;;;;-2.55;50.33;100585.69;4918698;29;20035;-69
2022/03/02 01:47:46;;;;;;;20.35;8.65;;;;;;;-2.59;50.37;100582.19;4902371;29;20520;-70
2022/03/02 01:50:12;;;;;;;24.40;9.00;;;;;;;-2.57;50.76;100579.59;4916898;29;20047;-72
2022/03/02 01:52:37;;;;;;;24.40;8.98;;;;;;;-2.59;50.34;100581.31;4916299;29;20043;-69
2022/03/02 01:55:04;;;;;;;30.25;9.93;;;;;;;-2.62;50.21;100563.97;4918176;28;20047;-70
2022/03/02 01:57:29;;;;;;;29.77;9.38;;;;;;;-2.66;50.11;100564.84;4919710;28;20050;-73
2022/03/02 01:59:54;;;;;;;19.92;7.20;;;;;;;-2.69;50.92;100563.97;4919523;28;20031;-72
2022/03/02 02:02:18;;;;;;;22.90;7.65;;;;;;;-2.72;50.70;100554.44;4918304;29;20047;-72
2022/03/02 02:04:43;;;;;;;20.65;8.85;;;;;;;-2.79;51.16;100554.44;4917998;29;20049;-72
2022/03/02 02:07:08;;;;;;;23.27;8.15;;;;;;;-2.80;51.11;100558.78;4918113;29;20094;-71
2022/03/02 02:09:33;;;;;;;14.50;6.72;;;;;;;-2.81;50.78;100561.38;4916127;29;20391;-74
2022/03/02 02:11:58;;;;;;;14.30;6.72;;;;;;;-2.80;50.06;100553.56;4917224;28;20411;-73
2022/03/02 02:14:23;;;;;;;20.50;7.68;;;;;;;-2.81;49.61;100545.72;4917178;28;20437;-70
2022/03/02 02:16:48;;;;;;;19.70;8.52;;;;;;;-2.91;49.90;100555.34;4916108;29;20465;-70
2022/03/02 02:19:13;;;;;;;17.08;8.52;;;;;;;-2.90;50.12;100558.81;4919621;28;20066;-72
2022/03/02 02:21:38;;;;;;;21.98;7.75;;;;;;;-2.86;48.94;100556.19;4902847;29;20039;-72
2022/03/02 02:24:03;;;;;;;20.80;7.35;;;;;;;-2.80;48.58;100547.47;4919203;29;20063;-72
2022/03/02 02:26:27;;;;;;;27.77;9.27;;;;;;;-2.86;49.31;100555.34;4919453;28;20417;-72
2022/03/02 02:28:54;;;;;;;16.95;7.15;;;;;;;-2.86;48.30;100537.94;4918051;29;20383;-72
2022/03/02 02:31:19;;;;;;;14.90;6.95;;;;;;;-2.84;47.59;100541.41;4918876;28;20059;-67
2022/03/02 02:33:44;;;;;;;20.33;8.90;;;;;;;-2.80;47.96;100545.72;4915818;29;20046;-67
2022/03/02 02:36:09;;;;;;;22.50;9.48;;;;;;;-2.88;48.59;100537.06;4917278;28;20039;-66
2022/03/02 02:38:34;;;;;;;18.27;8.27;;;;;;;-2.92;48.19;100538.81;4916986;28;20082;-66
2022/03/02 02:40:59;;;;;;;13.60;6.53;;;;;;;-2.80;47.92;100543.13;4917077;29;20079;-69
2022/03/02 02:43:25;;;;;;;22.92;7.68;;;;;;;-2.69;46.92;100533.53;4915725;29;20390;-69
2022/03/02 02:45:50;;;;;;;21.65;9.88;;;;;;;-2.77;48.26;100534.44;4913112;29;20047;-69
2022/03/02 02:48:15;;;;;;;18.10;7.93;;;;;;;-2.81;48.60;100530.06;4917129;28;20587;-69
2022/03/02 02:50:40;;;;;;;17.80;7.05;;;;;;;-2.82;48.47;100523.16;4915387;29;20110;-68
2022/03/02 02:53:08;;;;;;;16.48;7.90;;;;;;;-2.84;47.94;100524.91;4915722;29;20054;-64
2022/03/02 02:55:34;;;;;;;15.40;7.53;;;;;;;-2.87;48.37;100517.94;4915306;29;20521;-69
2022/03/02 02:57:59;;;;;;;14.68;7.53;;;;;;;-2.86;48.68;100517.06;4915644;28;20058;-71
2022/03/02 03:00:27;;;;;;;19.10;7.85;;;;;;;-2.86;49.25;100511.84;4918447;29;20086;-67
2022/03/02 03:02:53;;;;;;;18.50;8.45;;;;;;;-2.91;49.45;100505.75;4917085;29;20190;-66
2022/03/02 03:05:25;;;;;;;23.85;9.20;;;;;;;-2.94;49.40;100508.41;4919465;29;20078;-66
2022/03/02 03:07:53;;;;;;;18.00;9.15;;;;;;;-2.92;50.56;100506.63;4921318;29;20891;-64
2022/03/02 03:10:18;;;;;;;15.32;7.97;;;;;;;-2.86;48.88;100504.03;4921077;28;20054;-67
2022/03/02 03:12:44;;;;;;;21.70;9.65;;;;;;;-2.89;49.28;100493.59;4926809;28;20059;-67
2022/03/02 03:15:12;;;;;;;16.08;8.52;;;;;;;-2.91;49.14;100508.38;4927100;29;20137;-69
2022/03/02 03:17:37;;;;;;;16.08;7.93;;;;;;;-2.95;48.95;100496.22;4924709;28;20043;-65
2022/03/02 03:20:04;;;;;;;17.92;8.18;;;;;;;-2.97;49.66;100498.84;4920705;29;20046;-66
2022/03/02 03:22:28;;;;;;;15.55;8.30;;;;;;;-3.00;49.83;100492.75;4919910;29;20185;-66
2022/03/02 03:24:54;;;;;;;19.05;8.35;;;;;;;-3.00;50.18;100492.75;4919426;29;20063;-64
2022/03/02 03:27:20;;;;;;;20.27;8.93;;;;;;;-2.99;49.41;100489.28;4920455;29;20054;-65
2022/03/02 03:29:44;;;;;;;15.93;8.57;;;;;;;-2.99;49.24;100491.88;4918658;29;20046;-65
2022/03/02 03:32:09;;;;;;;19.85;9.48;;;;;;;-3.03;49.62;100495.38;4920121;29;20522;-66
2022/03/02 03:34:36;;;;;;;19.80;8.70;;;;;;;-3.05;49.23;100486.69;4918895;29;20110;-65
2022/03/02 03:37:00;;;;;;;16.15;8.82;;;;;;;-3.07;49.54;100485.84;4920193;28;20055;-67
2022/03/02 03:39:26;;;;;;;9.77;5.55;;;;;;;-3.03;48.86;100490.16;4920243;28;20045;-66
2022/03/02 03:41:51;;;;;;;17.10;7.20;;;;;;;-3.07;49.89;100484.09;4920137;28;20070;-67
2022/03/02 03:44:16;;;;;;;18.92;7.85;;;;;;;-3.07;49.42;100480.63;4919056;29;20077;-66
2022/03/02 03:46:41;;;;;;;19.80;9.32;;;;;;;-3.08;50.11;100474.53;4919354;29;20578;-65
2022/03/02 03:49:06;;;;;;;18.40;8.75;;;;;;;-3.06;48.99;100478.00;4920177;29;20126;-66
2022/03/02 03:51:31;;;;;;;19.08;7.82;;;;;;;-3.06;49.65;100477.13;4918890;29;20125;-66
2022/03/02 03:53:55;;;;;;;22.98;9.02;;;;;;;-3.05;50.99;100484.09;4918664;29;20043;-67
2022/03/02 03:56:20;;;;;;;19.63;9.68;;;;;;;-3.09;51.28;100470.19;4920022;28;20046;-66
2022/03/02 03:58:45;;;;;;;21.38;8.80;;;;;;;-3.07;50.95;100470.19;4920375;28;20891;-67
2022/03/02 04:01:10;;;;;;;17.50;9.60;;;;;;;-3.07;51.62;100475.41;4925608;28;20077;-66
2022/03/02 04:03:36;;;;;;;21.75;10.80;;;;;;;-3.07;51.48;100478.00;4921460;28;20498;-67
2022/03/02 04:06:00;;;;;;;19.05;9.82;;;;;;;-3.07;51.13;100480.63;4920648;28;20054;-72
2022/03/02 04:08:25;;;;;;;17.35;8.77;;;;;;;-3.08;51.58;100476.28;4921202;28;20051;-70
2022/03/02 04:10:50;;;;;;;18.60;9.65;;;;;;;-3.08;51.57;100478.88;4922219;28;20608;-69
2022/03/02 04:13:15;;;;;;;23.98;10.50;;;;;;;-3.11;51.51;100473.66;4923026;29;20043;-67
2022/03/02 04:15:40;;;;;;;19.20;9.43;;;;;;;-3.13;52.07;100476.28;4924073;28;20061;-65
2022/03/02 04:18:06;;;;;;;24.38;10.75;;;;;;;-3.12;52.39;100479.75;4926104;28;20042;-67
2022/03/02 04:20:31;;;;;;;22.42;10.32;;;;;;;-3.14;51.74;100476.28;4928505;28;20046;-67
2022/03/02 04:22:55;;;;;;;26.05;10.13;;;;;;;-3.16;52.53;100470.22;4929193;29;20047;-66
2022/03/02 04:25:20;;;;;;;28.38;10.10;;;;;;;-3.23;52.27;100474.56;4925955;29;20086;-66
2022/03/02 04:27:45;;;;;;;22.05;11.70;;;;;;;-3.23;52.50;100471.97;4921867;28;20469;-66
2022/03/02 04:30:11;;;;;;;23.73;11.80;;;;;;;-3.23;52.16;100473.69;4902647;29;20071;-66
2022/03/02 04:32:37;;;;;;;25.13;10.45;;;;;;;-3.22;52.51;100465.00;4917964;29;20533;-68
2022/03/02 04:35:02;;;;;;;27.33;10.05;;;;;;;-3.19;52.82;100472.81;4917808;29;20493;-66
2022/03/02 04:37:28;;;;;;;18.02;8.38;;;;;;;-3.13;52.46;100475.41;4919424;28;20074;-67
2022/03/02 04:39:53;;;;;;;16.13;8.57;;;;;;;-3.09;51.60;100470.19;4919541;28;20081;-67
2022/03/02 04:42:17;;;;;;;25.83;9.10;;;;;;;-3.06;51.71;100466.72;4919151;28;20417;-67
2022/03/02 04:44:42;;;;;;;27.25;10.65;;;;;;;-3.03;52.57;100462.31;4917748;29;20043;-67
2022/03/02 04:47:07;;;;;;;21.35;10.07;;;;;;;-2.82;52.52;100463.16;4917878;29;20497;-67
2022/03/02 04:49:32;;;;;;;20.85;10.82;;;;;;;-2.56;51.92;100464.72;4902028;29;20047;-66
2022/03/02 04:51:56;;;;;;;48.17;12.63;;;;;;;-2.31;50.94;100461.97;4918932;28;20054;-67
2022/03/02 04:57:05;;;;;;;21.65;9.25;;;;;;;-1.71;48.89;100465.91;4917611;29;20501;-67
2022/03/02 04:59:33;;;;;;;25.08;9.68;;;;;;;-1.46;48.02;100451.69;4918760;29;20051;-67
2022/03/02 05:01:58;;;;;;;23.73;10.10;;;;;;;-1.18;47.82;100452.28;4919059;28;20046;-67
2022/03/02 05:04:22;;;;;;;24.58;9.05;;;;;;;-0.89;47.65;100451.94;4919122;28;20137;-68
2022/03/02 05:06:47;;;;;;;23.88;9.55;;;;;;;-0.64;46.86;100447.25;4918311;28;20430;-67
2022/03/02 05:09:12;;;;;;;26.77;11.05;;;;;;;-0.42;46.11;100447.81;4918387;28;20047;-67
2022/03/02 05:11:36;;;;;;;22.83;9.00;;;;;;;-0.16;45.22;100450.06;4918511;28;20047;-66
2022/03/02 05:14:01;;;;;;;25.00;9.90;;;;;;;0.06;44.87;100451.47;4901079;29;20151;-67
2022/03/02 05:16:26;;;;;;;32.15;9.80;;;;;;;0.31;44.29;100437.06;4918628;28;20046;-68
2022/03/02 05:18:51;;;;;;;32.90;10.65;;;;;;;0.64;43.64;100443.47;4917113;29;20047;-67
2022/03/02 05:21:16;;;;;;;32.45;11.07;;;;;;;1.04;42.87;100443.56;4917866;28;20086;-69
2022/03/02 05:23:40;;;;;;;25.92;10.57;;;;;;;1.47;42.25;100440.03;4919672;28;20128;-69
2022/03/02 05:26:05;;;;;;;28.50;10.32;;;;;;;1.92;40.82;100432.88;4921150;28;20529;-68
2022/03/02 05:28:30;;;;;;;22.27;10.23;;;;;;;2.32;39.98;100431.91;4920658;28;20409;-67
2022/03/02 05:30:55;;;;;;;25.70;11.13;;;;;;;2.62;39.33;100424.97;4920474;28;20409;-67
2022/03/02 05:33:20;;;;;;;27.95;10.98;;;;;;;2.96;38.70;100431.06;4918613;29;20474;-68
2022/03/02 05:35:45;;;;;;;40.97;10.70;;;;;;;3.35;38.47;100417.66;4919373;29;20504;-67
2022/03/02 05:38:10;;;;;;;26.45;11.00;;;;;;;3.85;37.14;100413.44;4920499;28;20039;-67
2022/03/02 05:40:34;;;;;;;24.77;11.02;;;;;;;4.38;36.09;100409.06;4901652;29;20129;-71
2022/03/02 05:42:59;;;;;;;24.15;10.75;;;;;;;4.75;35.08;100404.22;4918175;28;20134;-69
2022/03/02 05:45:24;;;;;;;37.67;11.40;;;;;;;5.05;35.17;100407.53;4916894;29;20205;-69
2022/03/02 05:47:50;;;;;;;31.80;10.73;;;;;;;5.34;34.11;100418.81;4918233;29;20054;-68
2022/03/02 05:50:14;;;;;;;24.27;10.38;;;;;;;5.66;34.41;100413.13;4918427;28;20047;-68
2022/03/02 05:52:40;;;;;;;42.35;12.00;;;;;;;6.11;33.42;100415.75;4917057;29;20047;-68
2022/03/02 05:55:05;;;;;;;28.98;10.95;;;;;;;6.58;32.45;100418.22;4917401;29;20039;-68
2022/03/02 05:57:30;;;;;;;27.50;11.75;;;;;;;7.08;32.33;100420.44;4918205;28;20046;-66
2022/03/02 05:59:54;;;;;;;32.65;11.00;;;;;;;7.49;31.95;100410.59;4916381;29;20047;-67
2022/03/02 06:02:19;;;;;;;31.77;11.55;;;;;;;7.88;31.02;100402.56;4917962;29;20050;-67
2022/03/02 06:04:44;;;;;;;28.30;10.30;;;;;;;8.36;30.36;100397.47;4921533;28;20470;-67
2022/03/02 06:07:09;;;;;;;33.15;12.32;;;;;;;8.82;29.99;100395.13;4918414;28;20043;-67
2022/03/02 06:09:33;;;;;;;27.02;12.18;;;;;;;9.20;29.30;100382.47;4919189;28;20047;-67
2022/03/02 06:11:59;;;;;;;30.00;11.77;;;;;;;9.45;29.03;100385.50;4919974;28;20128;-67
2022/03/02 06:14:23;;;;;;;24.00;11.82;;;;;;;9.58;29.05;100380.38;4921871;28;20055;-68
2022/03/02 06:16:48;;;;;;;40.30;13.18;;;;;;;9.82;28.86;100386.97;4918175;28;20111;-67
2022/03/02 06:19:14;;;;;;;31.67;12.50;;;;;;;10.04;28.07;100389.28;4917778;29;20145;-69
2022/03/02 06:21:43;;;;;;;35.88;12.48;;;;;;;10.31;27.76;100384.19;4916582;29;20050;-68
2022/03/02 06:24:08;;;;;;;34.88;10.88;;;;;;;10.68;26.86;100377.53;4917563;28;20094;-68
2022/03/02 06:26:33;;;;;;;29.00;10.48;;;;;;;11.09;26.41;100379.47;4916315;29;20058;-69
2022/03/02 06:28:58;;;;;;;31.45;13.10;;;;;;;11.43;26.06;100376.41;4916426;29;20051;-69
2022/03/02 06:31:23;;;;;;;51.20;12.68;;;;;;;11.85;25.88;100367.47;4917516;28;20043;-69
2022/03/02 06:33:48;;;;;;;39.08;12.68;;;;;;;12.46;24.84;100366.09;4902365;29;20039;-67
2022/03/02 06:36:14;;;;;;;31.77;13.35;;;;;;;13.16;24.58;100369.28;4923395;29;20038;-67
2022/03/02 06:38:39;;;;;;;34.30;12.40;;;;;;;13.86;23.56;100356.16;4921379;29;20057;-67
2022/03/02 06:41:15;;;;;;;27.52;11.90;;;;;;;14.50;23.32;100365.63;4924225;28;20043;-68
2022/03/02 06:44:01;;;;;;;32.00;11.05;;;;;;;15.18;21.82;100359.41;4923724;28;20410;-69
2022/03/02 06:46:31;;;;;;;25.40;10.75;;;;;;;15.67;20.88;100352.81;4921321;28;20067;-67
2022/03/02 06:49:03;;;;;;;31.75;12.60;;;;;;;15.82;20.09;100356.94;4921164;29;20053;-69
2022/03/02 06:51:30;;;;;;;27.95;11.25;;;;;;;14.75;21.29;100364.59;4921391;28;20047;-68
2022/03/02 06:53:57;;;;;;;34.78;12.98;;;;;;;13.16;22.56;100363.91;4919664;29;20075;-67
2022/03/02 06:56:22;;;;;;;27.50;11.85;;;;;;;11.65;24.49;100354.53;4921365;28;20043;-70
2022/03/02 06:58:54;;;;;;;36.83;12.88;;;;;;;10.39;25.78;100352.59;4921469;28;20055;-66
2022/03/02 07:01:26;;;;;;;34.65;12.80;;;;;;;9.59;26.76;100355.47;4921341;28;20074;-66
2022/03/02 07:03:54;;;;;;;34.15;13.18;;;;;;;9.04;27.37;100352.31;4919724;29;20046;-67
2022/03/02 07:06:21;;;;;;;31.42;14.07;;;;;;;8.38;28.63;100347.78;4921996;28;20062;-67
2022/03/02 07:08:48;;;;;;;33.83;11.95;;;;;;;8.13;29.45;100341.97;4920078;29;20047;-66
2022/03/02 07:11:15;;;;;;;41.70;12.15;;;;;;;7.93;29.33;100335.00;4923852;28;20055;-66
2022/03/02 07:13:40;;;;;;;29.75;11.18;;;;;;;7.90;29.28;100339.63;4921494;28;20521;-66
2022/03/02 07:16:04;;;;;;;19.75;10.48;;;;;;;7.93;29.51;100352.72;4920708;28;20513;-66
2022/03/02 07:18:29;;;;;;;23.13;7.90;;;;;;;8.07;29.95;100341.44;4920832;29;20517;-66
2022/03/02 07:20:57;;;;;;;18.63;7.15;;;;;;;8.41;29.65;100335.28;4920738;29;20043;-70
2022/03/02 07:23:23;;;;;;;22.13;8.68;;;;;;;8.84;28.59;100334.75;4920685;28;20502;-70
2022/03/02 07:25:49;;;;;;;25.98;8.55;;;;;;;9.48;28.13;100325.91;4920607;28;20059;-70
2022/03/02 07:28:15;;;;;;;25.35;8.30;;;;;;;10.18;27.25;100321.88;4920517;28;20050;-70
2022/03/02 07:30:40;;;;;;;21.00;8.52;;;;;;;11.04;26.07;100323.75;4920363;28;20075;-70
2022/03/02 07:33:06;;;;;;;22.88;8.75;;;;;;;11.65;24.60;100322.47;4921324;28;20078;-70
2022/03/02 07:35:33;;;;;;;24.08;8.20;;;;;;;12.05;23.77;100322.56;4923640;28;20067;-71
2022/03/02 07:37:58;;;;;;;26.08;8.90;;;;;;;13.06;23.15;100311.97;4923596;29;20081;-70
2022/03/02 07:40:22;;;;;;;14.45;7.10;;;;;;;14.55;22.17;100321.50;4920573;28;20075;-70
2022/03/02 07:42:49;;;;;;;21.70;8.55;;;;;;;16.02;20.69;100304.22;4920356;28;20541;-70
2022/03/02 07:45:14;;;;;;;22.88;10.15;;;;;;;17.67;19.24;100306.88;4919952;28;20051;-70
2022/03/02 07:47:39;;;;;;;21.23;8.38;;;;;;;19.09;18.57;100310.63;4918831;29;20574;-70
2022/03/02 07:50:04;;;;;;;16.02;7.35;;;;;;;20.36;16.95;100301.63;4920195;28;20565;-70
2022/03/02 07:52:30;;;;;;;20.15;7.70;;;;;;;21.47;16.17;100303.53;4918058;29;20080;-71
2022/03/02 07:54:59;;;;;;;14.50;7.40;;;;;;;21.64;15.18;100306.19;4902628;29;20047;-71
2022/03/02 07:57:25;;;;;;;15.05;6.35;;;;;;;22.36;14.93;100298.34;4920210;28;20055;-70
2022/03/02 07:59:52;;;;;;;16.38;6.18;;;;;;;22.95;14.19;100299.00;4920441;28;20043;-70
2022/03/02 08:02:20;;;;;;;21.08;6.93;;;;;;;23.35;13.63;100303.50;4919894;29;20039;-69
2022/03/02 08:04:46;;;;;;;15.63;5.90;;;;;;;23.20;13.77;100310.69;4919706;28;20046;-71
2022/03/02 08:07:11;;;;;;;16.90;6.55;;;;;;;23.64;13.71;100297.44;4919827;28;20047;-71
2022/03/02 08:09:36;;;;;;;23.20;8.80;;;;;;;24.20;13.49;100294.34;4919769;28;20042;-70
2022/03/02 08:12:03;;;;;;;18.67;8.38;;;;;;;24.58;13.10;100298.00;4919860;28;20077;-70
2022/03/02 08:14:28;;;;;;;17.48;9.20;;;;;;;25.53;12.46;100292.72;4902591;29;20066;-70
2022/03/02 08:16:53;;;;;;;18.00;6.72;;;;;;;26.32;12.01;100282.75;4919782;28;20047;-70
2022/03/02 08:19:19;;;;;;;12.45;5.93;;;;;;;26.79;11.81;100283.13;4918520;29;20098;-70
2022/03/02 08:21:50;;;;;;;17.67;6.25;;;;;;;26.89;11.18;100286.34;4919602;28;20043;-69
2022/03/02 08:24:17;;;;;;;10.45;6.45;;;;;;;26.97;11.25;100270.69;4919684;28;20528;-70
2022/03/02 08:26:47;;;;;;;11.27;6.45;;;;;;;27.23;11.56;100271.88;4920652;29;20074;-70
2022/03/02 08:29:13;;;;;;;10.02;6.38;;;;;;;27.57;11.25;100260.91;4923650;29;20460;-70
2022/03/02 08:31:41;;;;;;;16.10;6.30;;;;;;;28.23;10.61;100261.09;4919598;28;20532;-70
2022/03/02 08:34:06;;;;;;;11.73;6.05;;;;;;;28.52;10.53;100255.22;4919341;28;20047;-70
2022/03/02 08:36:33;;;;;;;12.93;6.13;;;;;;;29.08;10.66;100253.94;4919707;28;20122;-69
2022/03/02 08:39:04;;;;;;;10.85;6.03;;;;;;;29.68;10.01;100249.09;4919188;29;20039;-70
2022/03/02 08:41:28;;;;;;;17.23;7.25;;;;;;;30.14;9.82;100251.56;4919354;28;20494;-72
2022/03/02 08:43:53;;;;;;;13.73;7.75;;;;;;;29.94;9.58;100244.28;4917955;29;20509;-70
2022/03/02 08:46:19;;;;;;;17.92;8.25;;;;;;;30.41;9.32;100239.31;4919228;29;20086;-70
2022/03/02 08:48:45;;;;;;;17.13;7.68;;;;;;;29.86;9.33;100233.53;4918357;29;20473;-71
2022/03/02 08:51:09;;;;;;;13.52;7.20;;;;;;;30.25;9.06;100232.44;4922601;28;20462;-70
2022/03/02 08:53:34;;;;;;;14.95;7.50;;;;;;;30.59;8.90;100231.13;4932118;28;20148;-70
2022/03/02 08:56:03;;;;;;;15.95;7.82;;;;;;;31.13;9.17;100220.47;4932055;28;20051;-70
2022/03/02 08:58:28;;;;;;;12.02;7.47;;;;;;;31.63;8.86;100226.59;4919505;28;20126;-70
2022/03/02 09:00:53;;;;;;;14.30;7.68;;;;;;;32.03;8.71;100282.09;4917881;29;20040;-71
2022/03/02 09:03:22;;;;;;;14.13;7.35;;;;;;;32.06;8.05;100213.47;4919707;28;20043;-73
2022/03/02 09:05:48;;;;;;;17.48;7.35;;;;;;;32.01;8.07;100218.88;4903575;29;20051;-71
2022/03/02 09:08:13;;;;;;;15.68;8.55;;;;;;;31.92;8.58;100212.03;4917564;29;20041;-73
2022/03/02 09:10:38;;;;;;;16.85;8.43;;;;;;;32.31;8.46;100202.28;4917413;29;20134;-72
2022/03/02 09:13:03;;;;;;;13.77;6.80;;;;;;;32.39;8.23;100201.13;4918624;28;20097;-72
2022/03/02 09:15:28;;;;;;;20.67;8.27;;;;;;;32.66;8.28;100199.56;4917318;29;20047;-70
2022/03/02 09:17:54;;;;;;;15.40;7.38;;;;;;;32.94;8.12;100196.09;4918784;28;20410;-71
2022/03/02 09:20:19;;;;;;;15.70;7.03;;;;;;;33.30;8.07;100196.88;4918932;28;20054;-71
2022/03/02 09:22:44;;;;;;;16.35;7.10;;;;;;;33.18;7.79;100191.38;4918500;28;20130;-71
2022/03/02 09:25:10;;;;;;;11.48;6.07;;;;;;;32.94;7.91;100185.06;4918443;28;20597;-72
2022/03/02 09:27:36;;;;;;;10.48;6.60;;;;;;;32.44;7.90;100190.19;4918645;28;20456;-71
2022/03/02 09:30:06;;;;;;;15.60;6.28;;;;;;;31.49;8.17;100179.09;4918703;28;20557;-71
2022/03/02 09:32:32;;;;;;;15.63;6.85;;;;;;;31.14;8.42;100183.59;4918389;28;20042;-69
2022/03/02 09:34:57;;;;;;;15.55;7.70;;;;;;;30.79;8.78;100180.56;4918587;28;20085;-70
2022/03/02 09:37:24;;;;;;;16.30;8.55;;;;;;;30.76;8.60;100168.09;4918703;28;20093;-71
2022/03/02 09:39:50;;;;;;;10.95;6.57;;;;;;;30.55;9.15;100169.38;4918772;28;20046;-71
2022/03/02 09:42:23;;;;;;;13.13;6.13;;;;;;;30.58;8.29;100163.44;4918130;28;20047;-73
2022/03/02 09:44:58;;;;;;;12.60;6.55;;;;;;;31.12;8.35;100161.78;4917103;29;20046;-73
2022/03/02 09:47:24;;;;;;;13.18;7.68;;;;;;;31.02;8.35;100164.22;4918665;28;20050;-71
2022/03/02 09:49:56;;;;;;;12.45;6.22;;;;;;;31.72;8.15;100161.81;4922826;29;20050;-72
2022/03/02 09:52:22;;;;;;;12.57;6.50;;;;;;;31.58;8.13;100152.06;4923039;28;20093;-71
2022/03/02 09:54:54;;;;;;;11.40;6.35;;;;;;;31.49;8.02;100153.47;4900902;29;20350;-68
2022/03/02 09:57:20;;;;;;;10.77;6.20;;;;;;;31.44;8.20;100151.41;4918442;28;20403;-70
2022/03/02 09:59:54;;;;;;;13.75;6.20;;;;;;;31.98;8.27;100150.38;4916493;29;20101;-72
2022/03/02 10:02:34;;;;;;;;;;;;;;;33.05;7.37;100150.19;4901234;29;20134;-70
2022/03/02 10:05:04;;;;;;;13.02;6.35;;;;;;;31.37;8.44;100150.66;4917910;28;19919;-69
2022/03/02 10:07:33;;;;;;;9.73;5.22;;;;;;;30.11;8.48;100150.28;4917798;28;20051;-70
2022/03/02 10:10:22;;;;;;;6.18;4.78;;;;;;;30.15;9.19;100137.75;4917799;28;20129;-69
2022/03/02 10:12:48;;;;;;;8.55;5.25;;;;;;;29.51;9.02;100130.59;4917609;29;20043;-69
2022/03/02 10:15:14;;;;;;;8.13;5.78;;;;;;;29.13;8.88;100125.06;4899185;29;20134;-69
2022/03/02 10:17:42;;;;;;;9.45;5.22;;;;;;;28.96;9.12;100124.72;4917130;28;20035;-70
2022/03/02 10:20:10;;;;;;;9.07;4.82;;;;;;;27.23;9.83;100122.16;4916210;29;20074;-71
2022/03/02 10:22:40;;;;;;;9.70;5.18;;;;;;;25.72;10.60;100118.41;4916804;28;20043;-70
2022/03/02 10:25:08;;;;;;;9.48;5.88;;;;;;;25.16;11.11;100110.88;4916857;28;20436;-70
2022/03/02 10:27:57;;;;;;;10.88;5.60;;;;;;;24.75;11.42;100112.41;4916665;28;20043;-72
2022/03/02 10:30:22;;;;;;;14.02;5.45;;;;;;;24.33;11.69;100099.44;4916777;28;20580;-71
2022/03/02 10:32:49;;;;;;;10.60;5.05;;;;;;;23.77;12.15;100101.66;4915306;29;20476;-72
2022/03/02 10:35:18;;;;;;;18.13;5.90;;;;;;;22.13;13.38;100104.50;4914731;29;20042;-72
2022/03/02 10:37:58;;;;;;;17.65;6.13;;;;;;;20.17;14.78;100096.88;4915130;29;20047;-72
2022/03/02 10:40:28;;;;;;;10.48;5.03;;;;;;;18.19;15.85;100095.13;4915928;29;20039;-71
2022/03/02 10:43:05;;;;;;;16.38;5.75;;;;;;;16.75;16.74;100079.84;4914551;29;20518;-71
2022/03/02 10:45:42;;;;;;;10.77;5.50;;;;;;;15.63;17.98;100082.56;4914927;28;20046;-71
2022/03/02 10:48:52;;;;;;;9.90;5.43;;;;;;;14.34;19.85;100082.53;4918731;28;20059;-74
2022/03/02 10:51:17;;;;;;;9.68;5.15;;;;;;;13.23;19.90;100093.91;4896257;29;20047;-72
2022/03/02 10:53:50;;;;;;;11.77;4.93;;;;;;;12.67;20.87;100082.88;4894525;29;20086;-71
2022/03/02 10:56:19;;;;;;;13.38;5.20;;;;;;;11.48;21.61;100083.28;4896127;29;20339;-73
2022/03/02 10:58:50;;;;;;;14.60;5.38;;;;;;;11.22;22.33;100071.69;4895954;29;20052;-74
2022/03/02 11:01:18;;;;;;;12.93;4.88;;;;;;;10.98;22.01;100076.00;4863600;29;20039;-74
2022/03/02 11:03:44;;;;;;;9.65;4.10;;;;;;;10.68;22.74;100073.53;4888588;29;20047;-71
2022/03/02 11:06:11;;;;;;;7.38;4.90;;;;;;;10.37;22.74;100074.66;4897209;29;20047;-72
2022/03/02 11:08:36;;;;;;;8.55;5.22;;;;;;;10.05;23.88;100065.13;4879633;29;20088;-70
2022/03/02 11:11:04;;;;;;;11.02;4.68;;;;;;;9.83;23.60;100066.47;4898986;29;20048;-70
2022/03/02 11:13:30;;;;;;;6.22;3.83;;;;;;;9.58;23.52;100060.09;4893937;29;20074;-70
2022/03/02 11:15:57;;;;;;;9.25;4.65;;;;;;;9.14;24.41;100052.97;4892643;29;20115;-70
2022/03/02 11:18:48;;;;;;;8.30;4.00;;;;;;;9.19;24.73;100048.22;4899611;29;20052;-70